Phoenicia, NY

10:31 PM EDT on April 24, 2015 (GMT -0400)
Woodland Valley | | Change Station
CLOSE
Current Station
Personal Weather Station
Location: Phoenicia, NY
Elevation: 1240 ft
Nearby Weather Stations

Elev 1240 ft 42.04 °N, 74.34 °W | Updated 6 seconds ago

Partly Cloudy
Partly Cloudy
32.9 °F
Feels Like 33 °F
N
2.0
Wind Variable Wind from North

Today
High -- | Low -- °F
--% Chance of Precip.
Yesterday
High -- | Low -- °F
Precip. -- in
6:03 AM 7:48 PM
Waxing Crescent, 41% visible
Pressure 29.91 in
Visibility 10.0 miles
Clouds Clear
Windchill 33 °F
Dew Point 21 °F
Humidity 61%
Rainfall -999.00 in
Snow Depth Not available.
UV 0 out of 12
Pollen 7.20 out of 12
Air Quality Not available.
Flu Activity Widespread
METAR KMSV 250215Z AUTO 30006KT 10SM CLR M02/M06 A2991 RMK AO1

More Conditions Fewer Conditions

Pressure 29.91 in
Visibility 10.0 miles
Clouds Clear
Windchill 33 °F
Dew Point 21 °F
Humidity 61%
Rainfall -999.00 in
Snow Depth Not available.
UV 0 out of 12
Pollen 7.20 out of 12
Air Quality Not available.
Flu Activity Widespread
METAR KMSV 250215Z AUTO 30006KT 10SM CLR M02/M06 A2991 RMK AO1

More Conditions Fewer Conditions

10-Day Weather Forecast

Almanac

Astronomy

Apr. 24, 2015 Rise Set
Actual Time
Civil Twilight
Nautical Twilight
Astronomical Twilight
Moon
Length of Visible Light
Length of Day
Tomorrow will be .
, % of the Moon is Illuminated

Today's Extremes

State Highs State Lows

Community

WunderPhotos

Upload Photos

1,816,576 photos uploaded!

WunderBlogs® & News

Nearby

Air Quality

  Air Quality AQ Index Pollutant
Not available.

Snow Depth

Station Depth Elevation

Earthquake Activity

City Distance Mag. Time & Date
Minimum magnitude displayed is 2.5.

Coastal Water Temperatures

Place Temperature

Stations

Nearby Weather Stations

Station Location Temp. Windchill Dew Point Humidity Wind Precip. Elev Updated Type